sensor_id;sensor_type;location;lat;lon;timestamp;temperature;humidity
56478;DHT22;42382;53.210;5.772;2023-03-23T00:01:23;10.30;94.50
56478;DHT22;42382;53.210;5.772;2023-03-23T00:03:52;10.30;94.50
56478;DHT22;42382;53.210;5.772;2023-03-23T00:06:19;10.20;94.50
56478;DHT22;42382;53.210;5.772;2023-03-23T00:08:45;10.30;94.60
56478;DHT22;42382;53.210;5.772;2023-03-23T00:11:18;10.30;94.50
56478;DHT22;42382;53.210;5.772;2023-03-23T00:13:47;10.30;94.60
56478;DHT22;42382;53.210;5.772;2023-03-23T00:16:16;10.30;94.50
56478;DHT22;42382;53.210;5.772;2023-03-23T00:18:45;10.30;94.60
56478;DHT22;42382;53.210;5.772;2023-03-23T00:21:11;10.30;94.60
56478;DHT22;42382;53.210;5.772;2023-03-23T00:23:36;10.30;94.50
56478;DHT22;42382;53.210;5.772;2023-03-23T00:26:03;10.30;94.60
56478;DHT22;42382;53.210;5.772;2023-03-23T00:28:29;10.40;94.70
56478;DHT22;42382;53.210;5.772;2023-03-23T00:31:02;10.40;94.60
56478;DHT22;42382;53.210;5.772;2023-03-23T00:33:29;10.40;94.70
56478;DHT22;42382;53.210;5.772;2023-03-23T00:35:55;10.40;94.60
56478;DHT22;42382;53.210;5.772;2023-03-23T00:38:23;10.40;94.70
56478;DHT22;42382;53.210;5.772;2023-03-23T00:40:49;10.40;94.60
56478;DHT22;42382;53.210;5.772;2023-03-23T00:43:16;10.40;94.70
56478;DHT22;42382;53.210;5.772;2023-03-23T00:45:43;10.40;94.70
56478;DHT22;42382;53.210;5.772;2023-03-23T00:48:10;10.40;94.70
56478;DHT22;42382;53.210;5.772;2023-03-23T00:50:38;10.40;94.70
56478;DHT22;42382;53.210;5.772;2023-03-23T00:53:03;10.50;94.70
56478;DHT22;42382;53.210;5.772;2023-03-23T00:55:29;10.50;94.70
56478;DHT22;42382;53.210;5.772;2023-03-23T00:57:55;10.50;94.60
56478;DHT22;42382;53.210;5.772;2023-03-23T01:00:21;10.40;94.60
56478;DHT22;42382;53.210;5.772;2023-03-23T01:02:48;10.40;94.50
56478;DHT22;42382;53.210;5.772;2023-03-23T01:05:13;10.40;94.50
56478;DHT22;42382;53.210;5.772;2023-03-23T01:07:41;10.40;94.30
56478;DHT22;42382;53.210;5.772;2023-03-23T01:10:10;10.30;94.40
56478;DHT22;42382;53.210;5.772;2023-03-23T01:12:40;10.30;94.50
56478;DHT22;42382;53.210;5.772;2023-03-23T01:15:06;10.30;94.50
56478;DHT22;42382;53.210;5.772;2023-03-23T01:17:31;10.40;94.40
56478;DHT22;42382;53.210;5.772;2023-03-23T01:19:57;10.40;94.60
56478;DHT22;42382;53.210;5.772;2023-03-23T01:22:23;10.40;94.60
56478;DHT22;42382;53.210;5.772;2023-03-23T01:24:48;10.40;94.50
56478;DHT22;42382;53.210;5.772;2023-03-23T01:27:14;10.50;94.50
56478;DHT22;42382;53.210;5.772;2023-03-23T01:29:40;10.50;94.60
56478;DHT22;42382;53.210;5.772;2023-03-23T01:32:05;10.60;94.50
56478;DHT22;42382;53.210;5.772;2023-03-23T01:34:31;10.60;94.40
56478;DHT22;42382;53.210;5.772;2023-03-23T01:36:57;10.70;94.40
56478;DHT22;42382;53.210;5.772;2023-03-23T01:39:22;10.60;94.20
56478;DHT22;42382;53.210;5.772;2023-03-23T01:41:48;10.70;94.30
56478;DHT22;42382;53.210;5.772;2023-03-23T01:46:42;10.80;94.30
56478;DHT22;42382;53.210;5.772;2023-03-23T01:49:12;10.70;94.00
56478;DHT22;42382;53.210;5.772;2023-03-23T01:51:42;10.80;94.10
56478;DHT22;42382;53.210;5.772;2023-03-23T01:54:11;10.80;94.20
56478;DHT22;42382;53.210;5.772;2023-03-23T01:56:44;10.80;94.00
56478;DHT22;42382;53.210;5.772;2023-03-23T01:59:11;10.80;93.80
56478;DHT22;42382;53.210;5.772;2023-03-23T02:01:36;10.80;93.70
56478;DHT22;42382;53.210;5.772;2023-03-23T02:04:05;10.80;93.60
56478;DHT22;42382;53.210;5.772;2023-03-23T02:06:31;10.90;93.50
56478;DHT22;42382;53.210;5.772;2023-03-23T02:08:56;10.80;93.60
56478;DHT22;42382;53.210;5.772;2023-03-23T02:11:22;10.80;93.50
56478;DHT22;42382;53.210;5.772;2023-03-23T02:13:48;10.90;93.20
56478;DHT22;42382;53.210;5.772;2023-03-23T02:24:01;10.90;92.90
56478;DHT22;42382;53.210;5.772;2023-03-23T02:26:43;10.80;93.00
56478;DHT22;42382;53.210;5.772;2023-03-23T02:29:14;10.90;92.90
56478;DHT22;42382;53.210;5.772;2023-03-23T02:37:00;11.00;92.70
56478;DHT22;42382;53.210;5.772;2023-03-23T02:39:30;10.90;92.50
56478;DHT22;42382;53.210;5.772;2023-03-23T02:42:02;10.90;92.60
56478;DHT22;42382;53.210;5.772;2023-03-23T02:44:30;10.90;92.60
56478;DHT22;42382;53.210;5.772;2023-03-23T02:46:56;10.90;92.60
56478;DHT22;42382;53.210;5.772;2023-03-23T02:49:23;11.00;92.50
56478;DHT22;42382;53.210;5.772;2023-03-23T02:51:50;10.90;92.50
56478;DHT22;42382;53.210;5.772;2023-03-23T02:54:16;10.90;92.30
56478;DHT22;42382;53.210;5.772;2023-03-23T02:56:43;10.90;92.30
56478;DHT22;42382;53.210;5.772;2023-03-23T02:59:10;10.90;92.20
56478;DHT22;42382;53.210;5.772;2023-03-23T03:04:05;10.90;92.10
56478;DHT22;42382;53.210;5.772;2023-03-23T03:06:41;11.00;91.90
56478;DHT22;42382;53.210;5.772;2023-03-23T03:09:16;10.90;91.90
56478;DHT22;42382;53.210;5.772;2023-03-23T03:11:48;10.90;91.80
56478;DHT22;42382;53.210;5.772;2023-03-23T03:14:23;10.90;91.90
56478;DHT22;42382;53.210;5.772;2023-03-23T03:19:17;11.00;91.50
56478;DHT22;42382;53.210;5.772;2023-03-23T03:21:45;10.90;91.40
56478;DHT22;42382;53.210;5.772;2023-03-23T03:24:14;10.90;91.60
56478;DHT22;42382;53.210;5.772;2023-03-23T03:26:42;10.90;91.60
56478;DHT22;42382;53.210;5.772;2023-03-23T03:29:10;10.80;91.60
56478;DHT22;42382;53.210;5.772;2023-03-23T03:31:37;10.80;91.80
56478;DHT22;42382;53.210;5.772;2023-03-23T03:34:04;10.70;91.90
56478;DHT22;42382;53.210;5.772;2023-03-23T03:36:31;10.60;92.00
56478;DHT22;42382;53.210;5.772;2023-03-23T03:39:03;10.60;92.10
56478;DHT22;42382;53.210;5.772;2023-03-23T03:41:31;10.50;92.20
56478;DHT22;42382;53.210;5.772;2023-03-23T03:43:56;10.40;92.20
56478;DHT22;42382;53.210;5.772;2023-03-23T03:46:22;10.30;92.20
56478;DHT22;42382;53.210;5.772;2023-03-23T03:48:52;10.30;92.30
56478;DHT22;42382;53.210;5.772;2023-03-23T03:51:17;10.30;92.40
56478;DHT22;42382;53.210;5.772;2023-03-23T03:53:43;10.30;92.60
56478;DHT22;42382;53.210;5.772;2023-03-23T03:56:08;10.30;92.70
56478;DHT22;42382;53.210;5.772;2023-03-23T03:58:34;10.30;92.80
56478;DHT22;42382;53.210;5.772;2023-03-23T04:01:02;10.30;92.90
56478;DHT22;42382;53.210;5.772;2023-03-23T04:03:27;10.30;92.80
56478;DHT22;42382;53.210;5.772;2023-03-23T04:05:53;10.30;92.80
56478;DHT22;42382;53.210;5.772;2023-03-23T04:08:23;10.30;92.70
56478;DHT22;42382;53.210;5.772;2023-03-23T04:10:48;10.30;92.80
56478;DHT22;42382;53.210;5.772;2023-03-23T04:13:14;10.40;92.80
56478;DHT22;42382;53.210;5.772;2023-03-23T04:15:40;10.30;92.60
56478;DHT22;42382;53.210;5.772;2023-03-23T04:18:06;10.30;92.50
56478;DHT22;42382;53.210;5.772;2023-03-23T04:20:31;10.30;92.50
56478;DHT22;42382;53.210;5.772;2023-03-23T04:22:57;10.40;92.40
56478;DHT22;42382;53.210;5.772;2023-03-23T04:25:23;10.40;92.30
56478;DHT22;42382;53.210;5.772;2023-03-23T04:27:49;10.40;92.30
56478;DHT22;42382;53.210;5.772;2023-03-23T04:30:21;10.40;92.00
56478;DHT22;42382;53.210;5.772;2023-03-23T04:32:48;10.30;92.00
56478;DHT22;42382;53.210;5.772;2023-03-23T04:35:16;10.30;92.00
56478;DHT22;42382;53.210;5.772;2023-03-23T04:37:41;10.30;92.10
56478;DHT22;42382;53.210;5.772;2023-03-23T04:40:08;10.20;92.20
56478;DHT22;42382;53.210;5.772;2023-03-23T04:42:42;10.20;92.10
56478;DHT22;42382;53.210;5.772;2023-03-23T04:45:11;10.20;92.00
56478;DHT22;42382;53.210;5.772;2023-03-23T04:47:38;10.20;91.90
56478;DHT22;42382;53.210;5.772;2023-03-23T04:50:07;10.20;91.90
56478;DHT22;42382;53.210;5.772;2023-03-23T04:52:37;10.10;92.00
56478;DHT22;42382;53.210;5.772;2023-03-23T04:55:06;10.10;91.70
56478;DHT22;42382;53.210;5.772;2023-03-23T04:57:32;10.00;91.90
56478;DHT22;42382;53.210;5.772;2023-03-23T04:59:58;10.00;91.70
56478;DHT22;42382;53.210;5.772;2023-03-23T05:02:27;10.00;91.80
56478;DHT22;42382;53.210;5.772;2023-03-23T05:04:56;10.00;91.60
56478;DHT22;42382;53.210;5.772;2023-03-23T05:07:22;9.90;91.70
56478;DHT22;42382;53.210;5.772;2023-03-23T05:09:48;9.90;91.80
56478;DHT22;42382;53.210;5.772;2023-03-23T05:12:13;10.00;91.80
56478;DHT22;42382;53.210;5.772;2023-03-23T05:14:42;10.00;91.70
56478;DHT22;42382;53.210;5.772;2023-03-23T05:17:08;10.00;91.60
56478;DHT22;42382;53.210;5.772;2023-03-23T05:19:34;9.90;91.30
56478;DHT22;42382;53.210;5.772;2023-03-23T05:22:01;10.00;91.30
56478;DHT22;42382;53.210;5.772;2023-03-23T05:24:29;9.90;91.50
56478;DHT22;42382;53.210;5.772;2023-03-23T05:26:56;9.90;91.30
56478;DHT22;42382;53.210;5.772;2023-03-23T05:29:22;9.80;91.30
56478;DHT22;42382;53.210;5.772;2023-03-23T05:31:49;9.90;91.30
56478;DHT22;42382;53.210;5.772;2023-03-23T05:34:14;9.90;91.30
56478;DHT22;42382;53.210;5.772;2023-03-23T05:36:44;9.90;91.20
56478;DHT22;42382;53.210;5.772;2023-03-23T05:39:10;9.90;91.20
56478;DHT22;42382;53.210;5.772;2023-03-23T05:41:36;9.90;91.30
56478;DHT22;42382;53.210;5.772;2023-03-23T05:44:02;9.90;91.30
56478;DHT22;42382;53.210;5.772;2023-03-23T05:46:28;9.90;91.40
56478;DHT22;42382;53.210;5.772;2023-03-23T05:48:54;9.90;91.00
56478;DHT22;42382;53.210;5.772;2023-03-23T05:51:19;9.90;91.00
56478;DHT22;42382;53.210;5.772;2023-03-23T05:53:45;10.00;91.40
56478;DHT22;42382;53.210;5.772;2023-03-23T05:56:12;10.00;90.90
56478;DHT22;42382;53.210;5.772;2023-03-23T05:58:38;9.90;90.40
56478;DHT22;42382;53.210;5.772;2023-03-23T06:01:06;9.80;89.90
56478;DHT22;42382;53.210;5.772;2023-03-23T06:03:32;9.80;90.30
56478;DHT22;42382;53.210;5.772;2023-03-23T06:05:57;9.70;89.60
56478;DHT22;42382;53.210;5.772;2023-03-23T06:08:24;9.70;88.70
56478;DHT22;42382;53.210;5.772;2023-03-23T06:10:49;9.60;87.30
56478;DHT22;42382;53.210;5.772;2023-03-23T06:13:15;9.50;86.60
56478;DHT22;42382;53.210;5.772;2023-03-23T06:15:40;9.50;87.60
56478;DHT22;42382;53.210;5.772;2023-03-23T06:18:06;9.50;87.30
56478;DHT22;42382;53.210;5.772;2023-03-23T06:20:31;9.40;87.10
56478;DHT22;42382;53.210;5.772;2023-03-23T06:22:58;9.40;87.70
56478;DHT22;42382;53.210;5.772;2023-03-23T06:25:23;9.40;87.60
56478;DHT22;42382;53.210;5.772;2023-03-23T06:27:49;9.30;88.00
56478;DHT22;42382;53.210;5.772;2023-03-23T06:30:17;9.30;88.40
56478;DHT22;42382;53.210;5.772;2023-03-23T06:32:43;9.30;88.60
56478;DHT22;42382;53.210;5.772;2023-03-23T06:35:11;9.40;88.90
56478;DHT22;42382;53.210;5.772;2023-03-23T06:37:37;9.40;89.00
56478;DHT22;42382;53.210;5.772;2023-03-23T06:40:03;9.40;88.70
56478;DHT22;42382;53.210;5.772;2023-03-23T06:42:32;9.40;88.90
56478;DHT22;42382;53.210;5.772;2023-03-23T06:44:58;9.40;89.20
56478;DHT22;42382;53.210;5.772;2023-03-23T06:47:26;9.40;89.30
56478;DHT22;42382;53.210;5.772;2023-03-23T06:49:51;9.40;89.50
56478;DHT22;42382;53.210;5.772;2023-03-23T06:52:17;9.40;89.60
56478;DHT22;42382;53.210;5.772;2023-03-23T06:54:43;9.40;89.90
56478;DHT22;42382;53.210;5.772;2023-03-23T06:57:08;9.40;90.20
56478;DHT22;42382;53.210;5.772;2023-03-23T06:59:34;9.50;90.30
56478;DHT22;42382;53.210;5.772;2023-03-23T07:01:59;9.60;90.50
56478;DHT22;42382;53.210;5.772;2023-03-23T07:04:25;9.60;90.70
56478;DHT22;42382;53.210;5.772;2023-03-23T07:06:51;9.70;90.70
56478;DHT22;42382;53.210;5.772;2023-03-23T07:09:16;9.70;90.70
56478;DHT22;42382;53.210;5.772;2023-03-23T07:11:42;9.80;90.80
56478;DHT22;42382;53.210;5.772;2023-03-23T07:14:09;9.90;90.80
56478;DHT22;42382;53.210;5.772;2023-03-23T07:16:34;9.90;90.80
56478;DHT22;42382;53.210;5.772;2023-03-23T07:19:00;9.90;90.80
56478;DHT22;42382;53.210;5.772;2023-03-23T07:21:25;10.00;90.70
56478;DHT22;42382;53.210;5.772;2023-03-23T07:23:51;10.00;90.80
56478;DHT22;42382;53.210;5.772;2023-03-23T07:26:17;10.10;90.30
56478;DHT22;42382;53.210;5.772;2023-03-23T07:28:43;10.20;90.40
56478;DHT22;42382;53.210;5.772;2023-03-23T07:31:08;10.20;90.20
56478;DHT22;42382;53.210;5.772;2023-03-23T07:33:34;10.10;90.20
56478;DHT22;42382;53.210;5.772;2023-03-23T07:36:01;10.20;90.10
56478;DHT22;42382;53.210;5.772;2023-03-23T07:38:27;10.20;90.10
56478;DHT22;42382;53.210;5.772;2023-03-23T07:40:53;10.20;90.20
56478;DHT22;42382;53.210;5.772;2023-03-23T07:43:18;10.20;89.50
56478;DHT22;42382;53.210;5.772;2023-03-23T07:45:45;10.30;89.80
56478;DHT22;42382;53.210;5.772;2023-03-23T07:48:11;10.40;89.60
56478;DHT22;42382;53.210;5.772;2023-03-23T07:50:36;10.40;89.70
56478;DHT22;42382;53.210;5.772;2023-03-23T07:53:02;10.60;89.70
56478;DHT22;42382;53.210;5.772;2023-03-23T07:55:28;10.60;89.10
56478;DHT22;42382;53.210;5.772;2023-03-23T07:57:54;10.70;88.90
56478;DHT22;42382;53.210;5.772;2023-03-23T08:00:20;10.80;88.90
56478;DHT22;42382;53.210;5.772;2023-03-23T08:02:48;10.80;88.30
56478;DHT22;42382;53.210;5.772;2023-03-23T08:05:15;10.80;88.50
56478;DHT22;42382;53.210;5.772;2023-03-23T08:07:41;10.80;88.30
56478;DHT22;42382;53.210;5.772;2023-03-23T08:10:08;10.70;88.00
56478;DHT22;42382;53.210;5.772;2023-03-23T08:12:40;10.70;87.90
56478;DHT22;42382;53.210;5.772;2023-03-23T08:15:07;10.70;87.90
56478;DHT22;42382;53.210;5.772;2023-03-23T08:17:33;10.70;88.30
56478;DHT22;42382;53.210;5.772;2023-03-23T08:20:00;10.70;88.10
56478;DHT22;42382;53.210;5.772;2023-03-23T08:22:25;10.70;87.40
56478;DHT22;42382;53.210;5.772;2023-03-23T08:24:51;10.70;87.10
56478;DHT22;42382;53.210;5.772;2023-03-23T08:27:16;10.70;87.10
56478;DHT22;42382;53.210;5.772;2023-03-23T08:29:45;10.80;87.40
56478;DHT22;42382;53.210;5.772;2023-03-23T08:32:11;10.80;87.50
56478;DHT22;42382;53.210;5.772;2023-03-23T08:34:37;10.80;86.50
56478;DHT22;42382;53.210;5.772;2023-03-23T08:37:02;10.90;87.00
56478;DHT22;42382;53.210;5.772;2023-03-23T08:39:28;10.90;85.80
56478;DHT22;42382;53.210;5.772;2023-03-23T08:59:00;11.40;86.10
56478;DHT22;42382;53.210;5.772;2023-03-23T09:11:10;14.80;74.50
56478;DHT22;42382;53.210;5.772;2023-03-23T09:13:37;14.90;72.40
56478;DHT22;42382;53.210;5.772;2023-03-23T09:16:03;15.00;72.50
56478;DHT22;42382;53.210;5.772;2023-03-23T09:18:29;15.10;73.20
56478;DHT22;42382;53.210;5.772;2023-03-23T09:20:56;15.30;71.70
56478;DHT22;42382;53.210;5.772;2023-03-23T09:23:22;15.20;72.70
56478;DHT22;42382;53.210;5.772;2023-03-23T09:25:48;15.30;70.50
56478;DHT22;42382;53.210;5.772;2023-03-23T09:28:14;15.00;71.30
56478;DHT22;42382;53.210;5.772;2023-03-23T09:30:40;14.70;71.90
56478;DHT22;42382;53.210;5.772;2023-03-23T09:33:06;14.50;72.10
56478;DHT22;42382;53.210;5.772;2023-03-23T09:35:33;14.60;72.90
56478;DHT22;42382;53.210;5.772;2023-03-23T09:38:01;14.50;73.90
56478;DHT22;42382;53.210;5.772;2023-03-23T09:40:28;14.90;73.30
56478;DHT22;42382;53.210;5.772;2023-03-23T09:43:02;14.90;70.50
56478;DHT22;42382;53.210;5.772;2023-03-23T10:13:09;15.70;64.30
56478;DHT22;42382;53.210;5.772;2023-03-23T10:15:40;15.40;66.80
56478;DHT22;42382;53.210;5.772;2023-03-23T10:18:13;15.30;63.30
56478;DHT22;42382;53.210;5.772;2023-03-23T10:25:54;16.40;66.40
56478;DHT22;42382;53.210;5.772;2023-03-23T10:28:23;16.00;65.50
56478;DHT22;42382;53.210;5.772;2023-03-23T10:30:51;15.40;66.10
56478;DHT22;42382;53.210;5.772;2023-03-23T10:33:39;15.10;67.70
56478;DHT22;42382;53.210;5.772;2023-03-23T10:36:07;14.80;67.10
56478;DHT22;42382;53.210;5.772;2023-03-23T10:38:43;14.60;68.90
56478;DHT22;42382;53.210;5.772;2023-03-23T10:41:11;14.30;67.90
56478;DHT22;42382;53.210;5.772;2023-03-23T10:43:39;14.30;70.20
56478;DHT22;42382;53.210;5.772;2023-03-23T10:48:38;14.20;70.30
56478;DHT22;42382;53.210;5.772;2023-03-23T10:51:09;14.50;71.10
56478;DHT22;42382;53.210;5.772;2023-03-23T10:53:38;15.20;69.60
56478;DHT22;42382;53.210;5.772;2023-03-23T10:56:05;15.90;69.60
56478;DHT22;42382;53.210;5.772;2023-03-23T10:58:31;16.00;65.70
56478;DHT22;42382;53.210;5.772;2023-03-23T11:00:58;15.60;66.70
56478;DHT22;42382;53.210;5.772;2023-03-23T11:03:39;15.40;67.70
56478;DHT22;42382;53.210;5.772;2023-03-23T11:06:06;15.10;68.10
56478;DHT22;42382;53.210;5.772;2023-03-23T11:08:35;14.80;68.10
56478;DHT22;42382;53.210;5.772;2023-03-23T11:11:18;14.70;70.00
56478;DHT22;42382;53.210;5.772;2023-03-23T11:13:44;14.80;70.00
56478;DHT22;42382;53.210;5.772;2023-03-23T11:16:10;15.40;69.90
56478;DHT22;42382;53.210;5.772;2023-03-23T11:18:47;15.60;67.30
56478;DHT22;42382;53.210;5.772;2023-03-23T11:21:13;15.90;65.50
56478;DHT22;42382;53.210;5.772;2023-03-23T11:23:42;16.10;65.00
56478;DHT22;42382;53.210;5.772;2023-03-23T11:26:15;16.30;64.40
56478;DHT22;42382;53.210;5.772;2023-03-23T11:28:53;16.30;64.60
56478;DHT22;42382;53.210;5.772;2023-03-23T11:31:21;16.80;63.90
56478;DHT22;42382;53.210;5.772;2023-03-23T11:33:52;17.30;63.50
56478;DHT22;42382;53.210;5.772;2023-03-23T11:36:19;17.30;61.40
56478;DHT22;42382;53.210;5.772;2023-03-23T11:38:45;17.30;62.50
56478;DHT22;42382;53.210;5.772;2023-03-23T11:41:11;16.90;60.60
56478;DHT22;42382;53.210;5.772;2023-03-23T11:43:40;16.80;61.80
56478;DHT22;42382;53.210;5.772;2023-03-23T11:48:52;17.10;60.70
56478;DHT22;42382;53.210;5.772;2023-03-23T11:51:29;17.30;60.20
56478;DHT22;42382;53.210;5.772;2023-03-23T11:56:38;16.50;61.10
56478;DHT22;42382;53.210;5.772;2023-03-23T11:59:09;16.20;62.90
56478;DHT22;42382;53.210;5.772;2023-03-23T12:06:52;15.60;65.60
56478;DHT22;42382;53.210;5.772;2023-03-23T12:27:04;14.90;67.30
56478;DHT22;42382;53.210;5.772;2023-03-23T12:30:16;14.60;67.20
56478;DHT22;42382;53.210;5.772;2023-03-23T12:32:29;14.60;69.20
56478;DHT22;42382;53.210;5.772;2023-03-23T12:37:36;14.60;69.60
56478;DHT22;42382;53.210;5.772;2023-03-23T12:47:49;15.10;69.80
56478;DHT22;42382;53.210;5.772;2023-03-23T12:50:24;15.10;68.10
56478;DHT22;42382;53.210;5.772;2023-03-23T12:53:13;15.10;68.10
56478;DHT22;42382;53.210;5.772;2023-03-23T12:55:47;15.10;67.30
56478;DHT22;42382;53.210;5.772;2023-03-23T12:58:19;14.90;67.80
56478;DHT22;42382;53.210;5.772;2023-03-23T13:00:52;14.90;69.00
56478;DHT22;42382;53.210;5.772;2023-03-23T13:08:49;14.80;69.60
56478;DHT22;42382;53.210;5.772;2023-03-23T13:11:18;14.80;69.60
56478;DHT22;42382;53.210;5.772;2023-03-23T13:13:49;14.90;68.20
56478;DHT22;42382;53.210;5.772;2023-03-23T13:18:45;14.90;70.10
56478;DHT22;42382;53.210;5.772;2023-03-23T13:21:25;15.10;70.20
56478;DHT22;42382;53.210;5.772;2023-03-23T13:23:54;15.30;69.10
56478;DHT22;42382;53.210;5.772;2023-03-23T13:26:21;15.20;69.00
56478;DHT22;42382;53.210;5.772;2023-03-23T13:29:06;15.40;68.10
56478;DHT22;42382;53.210;5.772;2023-03-23T13:31:35;15.40;68.90
56478;DHT22;42382;53.210;5.772;2023-03-23T13:34:02;15.20;68.70
56478;DHT22;42382;53.210;5.772;2023-03-23T13:36:38;15.20;69.40
56478;DHT22;42382;53.210;5.772;2023-03-23T13:39:06;15.20;69.20
56478;DHT22;42382;53.210;5.772;2023-03-23T13:41:45;15.10;68.50
56478;DHT22;42382;53.210;5.772;2023-03-23T13:44:15;15.00;69.30
56478;DHT22;42382;53.210;5.772;2023-03-23T13:46:41;15.00;69.70
56478;DHT22;42382;53.210;5.772;2023-03-23T13:51:35;15.10;70.70
56478;DHT22;42382;53.210;5.772;2023-03-23T13:54:14;15.20;69.50
56478;DHT22;42382;53.210;5.772;2023-03-23T13:57:02;15.30;69.90
56478;DHT22;42382;53.210;5.772;2023-03-23T13:59:31;15.30;69.60
56478;DHT22;42382;53.210;5.772;2023-03-23T14:04:42;15.30;69.40
56478;DHT22;42382;53.210;5.772;2023-03-23T14:07:10;15.30;69.50
56478;DHT22;42382;53.210;5.772;2023-03-23T14:09:40;15.30;69.30
56478;DHT22;42382;53.210;5.772;2023-03-23T14:12:17;15.20;69.70
56478;DHT22;42382;53.210;5.772;2023-03-23T14:14:47;15.10;67.30
56478;DHT22;42382;53.210;5.772;2023-03-23T14:17:14;15.10;68.70
56478;DHT22;42382;53.210;5.772;2023-03-23T14:19:41;15.00;68.10
56478;DHT22;42382;53.210;5.772;2023-03-23T14:22:17;15.00;68.10
56478;DHT22;42382;53.210;5.772;2023-03-23T14:24:42;14.90;68.70
56478;DHT22;42382;53.210;5.772;2023-03-23T14:29:33;14.90;69.70
56478;DHT22;42382;53.210;5.772;2023-03-23T14:31:59;14.90;69.10
56478;DHT22;42382;53.210;5.772;2023-03-23T14:34:27;14.90;69.00
56478;DHT22;42382;53.210;5.772;2023-03-23T14:36:54;14.90;69.80
56478;DHT22;42382;53.210;5.772;2023-03-23T14:39:33;14.90;69.20
56478;DHT22;42382;53.210;5.772;2023-03-23T14:42:01;14.90;69.70
56478;DHT22;42382;53.210;5.772;2023-03-23T14:44:29;15.00;69.30
56478;DHT22;42382;53.210;5.772;2023-03-23T14:46:56;15.00;69.00
56478;DHT22;42382;53.210;5.772;2023-03-23T14:49:56;14.90;68.10
56478;DHT22;42382;53.210;5.772;2023-03-23T14:52:15;14.90;68.00
56478;DHT22;42382;53.210;5.772;2023-03-23T14:54:41;14.90;67.90
56478;DHT22;42382;53.210;5.772;2023-03-23T14:57:11;14.90;69.30
56478;DHT22;42382;53.210;5.772;2023-03-23T14:59:39;14.90;68.80
56478;DHT22;42382;53.210;5.772;2023-03-23T15:02:05;15.00;67.70
56478;DHT22;42382;53.210;5.772;2023-03-23T15:04:31;14.90;68.00
56478;DHT22;42382;53.210;5.772;2023-03-23T15:07:01;14.90;67.70
56478;DHT22;42382;53.210;5.772;2023-03-23T15:09:27;15.00;67.80
56478;DHT22;42382;53.210;5.772;2023-03-23T15:11:54;14.90;66.90
56478;DHT22;42382;53.210;5.772;2023-03-23T15:14:21;14.90;66.60
56478;DHT22;42382;53.210;5.772;2023-03-23T15:16:48;14.90;66.80
56478;DHT22;42382;53.210;5.772;2023-03-23T15:19:33;14.80;66.10
56478;DHT22;42382;53.210;5.772;2023-03-23T15:22:04;14.80;66.70
56478;DHT22;42382;53.210;5.772;2023-03-23T15:29:31;14.70;67.90
56478;DHT22;42382;53.210;5.772;2023-03-23T15:31:57;14.60;67.60
56478;DHT22;42382;53.210;5.772;2023-03-23T15:34:28;14.60;68.90
56478;DHT22;42382;53.210;5.772;2023-03-23T15:36:55;14.70;69.40
56478;DHT22;42382;53.210;5.772;2023-03-23T15:39:21;14.70;69.80
56478;DHT22;42382;53.210;5.772;2023-03-23T15:41:48;14.80;69.90
56478;DHT22;42382;53.210;5.772;2023-03-23T15:44:28;14.90;69.10
56478;DHT22;42382;53.210;5.772;2023-03-23T15:47:02;15.10;68.40
56478;DHT22;42382;53.210;5.772;2023-03-23T15:49:28;15.30;68.80
56478;DHT22;42382;53.210;5.772;2023-03-23T15:51:54;15.20;68.30
56478;DHT22;42382;53.210;5.772;2023-03-23T15:54:19;15.00;68.50
56478;DHT22;42382;53.210;5.772;2023-03-23T15:56:45;14.80;68.00
56478;DHT22;42382;53.210;5.772;2023-03-23T15:59:11;14.70;69.60
56478;DHT22;42382;53.210;5.772;2023-03-23T16:01:37;14.60;70.30
56478;DHT22;42382;53.210;5.772;2023-03-23T16:04:04;14.60;70.50
56478;DHT22;42382;53.210;5.772;2023-03-23T16:06:30;14.40;69.50
56478;DHT22;42382;53.210;5.772;2023-03-23T16:08:56;14.20;70.40
56478;DHT22;42382;53.210;5.772;2023-03-23T16:11:22;14.20;70.80
56478;DHT22;42382;53.210;5.772;2023-03-23T16:13:48;14.00;71.80
56478;DHT22;42382;53.210;5.772;2023-03-23T16:16:15;14.00;72.20
56478;DHT22;42382;53.210;5.772;2023-03-23T16:18:41;13.90;72.10
56478;DHT22;42382;53.210;5.772;2023-03-23T16:21:07;13.90;72.60
56478;DHT22;42382;53.210;5.772;2023-03-23T16:23:32;13.90;72.40
56478;DHT22;42382;53.210;5.772;2023-03-23T16:25:58;13.90;73.20
56478;DHT22;42382;53.210;5.772;2023-03-23T16:28:23;13.90;72.60
56478;DHT22;42382;53.210;5.772;2023-03-23T16:30:49;14.00;73.10
56478;DHT22;42382;53.210;5.772;2023-03-23T16:33:14;13.90;72.80
56478;DHT22;42382;53.210;5.772;2023-03-23T16:35:40;13.90;73.10
56478;DHT22;42382;53.210;5.772;2023-03-23T16:38:06;13.80;73.20
56478;DHT22;42382;53.210;5.772;2023-03-23T16:40:32;13.90;73.10
56478;DHT22;42382;53.210;5.772;2023-03-23T16:42:57;13.80;72.90
56478;DHT22;42382;53.210;5.772;2023-03-23T16:45:23;13.70;73.50
56478;DHT22;42382;53.210;5.772;2023-03-23T16:47:49;13.70;74.50
56478;DHT22;42382;53.210;5.772;2023-03-23T16:50:16;13.60;74.20
56478;DHT22;42382;53.210;5.772;2023-03-23T16:52:43;13.60;74.30
56478;DHT22;42382;53.210;5.772;2023-03-23T16:55:09;13.50;74.70
56478;DHT22;42382;53.210;5.772;2023-03-23T16:57:35;13.50;74.50
56478;DHT22;42382;53.210;5.772;2023-03-23T17:00:03;13.50;75.10
56478;DHT22;42382;53.210;5.772;2023-03-23T17:02:30;13.40;75.20
56478;DHT22;42382;53.210;5.772;2023-03-23T17:04:56;13.40;74.70
56478;DHT22;42382;53.210;5.772;2023-03-23T17:07:22;13.30;75.00
56478;DHT22;42382;53.210;5.772;2023-03-23T17:09:47;13.30;75.30
56478;DHT22;42382;53.210;5.772;2023-03-23T17:12:13;13.30;75.80
56478;DHT22;42382;53.210;5.772;2023-03-23T17:14:39;13.30;75.80
56478;DHT22;42382;53.210;5.772;2023-03-23T17:17:05;13.20;75.80
56478;DHT22;42382;53.210;5.772;2023-03-23T17:19:31;13.20;76.10
56478;DHT22;42382;53.210;5.772;2023-03-23T17:21:57;13.20;76.00
56478;DHT22;42382;53.210;5.772;2023-03-23T17:24:22;13.10;76.40
56478;DHT22;42382;53.210;5.772;2023-03-23T17:26:48;13.10;76.60
56478;DHT22;42382;53.210;5.772;2023-03-23T17:29:13;13.00;76.90
56478;DHT22;42382;53.210;5.772;2023-03-23T17:31:39;12.90;76.70
56478;DHT22;42382;53.210;5.772;2023-03-23T17:34:05;12.90;77.10
56478;DHT22;42382;53.210;5.772;2023-03-23T17:36:31;12.90;77.10
56478;DHT22;42382;53.210;5.772;2023-03-23T17:55:59;12.80;77.50
56478;DHT22;42382;53.210;5.772;2023-03-23T17:58:25;12.50;78.70
56478;DHT22;42382;53.210;5.772;2023-03-23T18:00:51;12.40;78.80
56478;DHT22;42382;53.210;5.772;2023-03-23T18:03:17;12.40;79.00
56478;DHT22;42382;53.210;5.772;2023-03-23T18:05:42;12.40;78.90
56478;DHT22;42382;53.210;5.772;2023-03-23T18:08:08;12.40;78.90
56478;DHT22;42382;53.210;5.772;2023-03-23T18:10:34;12.40;79.00
56478;DHT22;42382;53.210;5.772;2023-03-23T18:13:01;12.30;79.30
56478;DHT22;42382;53.210;5.772;2023-03-23T18:15:27;12.30;79.30